Time;durP1;ratioP1;P1;durP2;ratioP2;P2;SDS_P1;SDS_P2;PMS_P1;PMS_P2;Temp;Humidity;BMP_temperature;BMP_pressure;BME280_temperature;BME280_humidity;BME280_pressure;Samples;Min_cycle;Max_cycle;Signal;HPM_P1;HPM_P2
2020/12/13 00:01:41;;;;;;;55.08;20.30;;;;;;;9.81;61.36;100421.31;5068094;28;20039;-70
2020/12/13 00:04:07;;;;;;;49.33;18.30;;;;;;;9.61;62.02;100429.34;5069421;28;20041;-70
2020/12/13 00:06:33;;;;;;;47.33;18.65;;;;;;;9.72;61.27;100430.03;5068234;28;20032;-72
2020/12/13 00:09:04;;;;;;;47.17;19.50;;;;;;;9.96;60.90;100426.25;5067161;28;20036;-69
2020/12/13 00:11:29;;;;;;;61.85;19.13;;;;;;;9.93;60.75;100434.00;5066571;28;20071;-72
2020/12/13 00:13:55;;;;;;;42.70;18.60;;;;;;;10.00;60.89;100428.75;5082395;28;20055;-71
2020/12/13 00:16:20;;;;;;;49.70;18.00;;;;;;;10.01;60.81;100433.06;5068566;28;20086;-70
2020/12/13 00:18:46;;;;;;;50.17;18.73;;;;;;;9.89;60.70;100434.09;5066526;28;20032;-70
2020/12/13 00:21:12;;;;;;;58.85;19.92;;;;;;;9.94;60.75;100434.91;5068072;28;20561;-71
2020/12/13 00:23:39;;;;;;;56.55;19.73;;;;;;;9.90;60.93;100439.25;5067867;28;20040;-71
2020/12/13 00:26:08;;;;;;;42.28;18.63;;;;;;;10.03;60.46;100439.91;5067968;28;20048;-70
2020/12/13 00:28:35;;;;;;;49.58;18.77;;;;;;;9.97;60.84;100440.00;5067703;28;20555;-70
2020/12/13 00:31:01;;;;;;;46.88;19.63;;;;;;;9.94;60.78;100440.91;5065227;28;20056;-70
2020/12/13 00:33:27;;;;;;;50.65;19.50;;;;;;;10.01;60.68;100446.81;5065253;28;20374;-70
2020/12/13 00:35:52;;;;;;;41.40;18.77;;;;;;;10.07;60.39;100451.91;5066347;28;20044;-70
2020/12/13 00:38:18;;;;;;;55.10;20.88;;;;;;;10.06;60.64;100450.19;5066226;28;20513;-72
2020/12/13 00:40:43;;;;;;;55.60;20.27;;;;;;;9.74;61.56;100453.25;5083257;28;20121;-70
2020/12/13 00:43:09;;;;;;;45.30;17.38;;;;;;;9.98;60.98;100450.31;5066761;28;20029;-70
2020/12/13 00:45:34;;;;;;;62.72;19.35;;;;;;;10.10;60.50;100445.84;5064037;28;20032;-70
2020/12/13 00:48:00;;;;;;;59.63;20.20;;;;;;;10.05;60.53;100453.66;5075012;28;20029;-70
2020/12/13 00:50:25;;;;;;;65.03;19.77;;;;;;;9.88;61.04;100455.63;5065605;28;20481;-70
2020/12/13 00:52:50;;;;;;;53.17;19.75;;;;;;;9.86;61.05;100458.22;5062622;28;20397;-70
2020/12/13 00:55:16;;;;;;;52.70;21.98;;;;;;;9.97;60.36;100463.22;5065787;28;20127;-70
2020/12/13 00:57:42;;;;;;;54.65;20.52;;;;;;;9.91;61.00;100463.31;5066737;28;20171;-70
2020/12/13 01:00:08;;;;;;;63.83;21.98;;;;;;;9.86;61.17;100468.53;5066892;28;20088;-70
2020/12/13 01:02:33;;;;;;;55.47;20.33;;;;;;;9.86;61.07;100470.28;5066874;28;20032;-70
2020/12/13 01:04:59;;;;;;;54.08;19.75;;;;;;;9.88;61.20;100468.53;5066691;28;20092;-71
2020/12/13 01:07:24;;;;;;;52.88;19.67;;;;;;;9.76;61.53;100472.16;5067613;28;20113;-70
2020/12/13 01:09:50;;;;;;;64.53;21.05;;;;;;;9.79;61.55;100477.25;5047203;28;20116;-72
2020/12/13 01:12:15;;;;;;;60.58;21.73;;;;;;;9.84;61.50;100484.94;5067349;28;20051;-70
2020/12/13 01:14:41;;;;;;;46.35;19.48;;;;;;;9.89;60.99;100483.13;5049015;28;20119;-70
2020/12/13 01:17:08;;;;;;;54.67;20.55;;;;;;;9.99;60.56;100487.31;5063762;28;20052;-70
2020/12/13 01:19:34;;;;;;;56.15;20.50;;;;;;;9.81;61.24;100482.41;5066967;28;20036;-70
2020/12/13 01:21:59;;;;;;;55.45;19.45;;;;;;;9.79;61.52;100491.91;5062020;28;20688;-70
2020/12/13 01:24:25;;;;;;;54.55;21.40;;;;;;;9.94;61.15;100496.84;5065360;28;20045;-70
2020/12/13 01:26:50;;;;;;;58.97;20.60;;;;;;;9.80;61.43;100496.16;5065622;28;20112;-71
2020/12/13 01:29:16;;;;;;;66.20;22.92;;;;;;;9.98;60.69;100503.69;5063703;28;20041;-71
2020/12/13 01:31:41;;;;;;;56.38;20.27;;;;;;;9.81;61.33;100491.00;5066523;28;20079;-70
2020/12/13 01:34:07;;;;;;;58.67;21.33;;;;;;;9.94;60.90;100496.84;5066351;28;20037;-70
2020/12/13 01:36:33;;;;;;;62.17;22.40;;;;;;;10.01;60.74;100502.78;5049054;28;20139;-70
2020/12/13 01:38:59;;;;;;;61.22;22.08;;;;;;;9.92;60.93;100508.94;5065689;28;20048;-70
2020/12/13 01:41:24;;;;;;;53.25;20.40;;;;;;;9.75;61.34;100515.16;5049070;28;20047;-70
2020/12/13 01:44:04;;;;;;;51.72;19.48;;;;;;;9.84;61.57;100513.31;5062242;28;20225;-70
2020/12/13 01:46:30;;;;;;;49.17;19.05;;;;;;;9.54;62.36;100507.69;5075602;28;20043;-70
2020/12/13 01:49:08;;;;;;;52.60;19.80;;;;;;;9.75;61.49;100507.41;5062092;28;20119;-69
2020/12/13 01:54:25;;;;;;;51.47;20.35;;;;;;;9.71;61.53;100517.78;5066662;28;20110;-70
2020/12/13 01:56:56;;;;;;;62.67;21.38;;;;;;;9.63;61.83;100514.47;5065764;28;20032;-70
2020/12/13 01:59:25;;;;;;;56.75;20.20;;;;;;;9.85;61.23;100510.75;5066910;28;20036;-69
2020/12/13 02:01:59;;;;;;;49.53;20.73;;;;;;;10.04;60.74;100521.66;5048348;28;20043;-71
2020/12/13 02:04:27;;;;;;;62.08;21.48;;;;;;;9.86;61.31;100519.31;5065299;28;20044;-70
2020/12/13 02:06:54;;;;;;;57.05;21.02;;;;;;;9.98;60.93;100520.03;5066057;28;20035;-70
2020/12/13 02:09:24;;;;;;;61.25;22.13;;;;;;;9.98;60.93;100519.16;5067496;28;20070;-70
2020/12/13 02:11:51;;;;;;;51.70;20.83;;;;;;;10.10;60.43;100523.31;5061990;28;20068;-69
2020/12/13 02:14:17;;;;;;;61.22;22.05;;;;;;;9.57;61.91;100520.56;5067700;28;20131;-70
2020/12/13 02:16:51;;;;;;;59.47;20.52;;;;;;;9.85;61.25;100528.81;5065454;28;20473;-69
2020/12/13 02:19:17;;;;;;;57.75;21.48;;;;;;;9.83;61.41;100532.28;5064537;28;20036;-70
2020/12/13 02:21:47;;;;;;;59.67;21.17;;;;;;;9.99;61.01;100533.78;5065719;28;20801;-70
2020/12/13 02:24:14;;;;;;;55.28;21.45;;;;;;;9.69;61.88;100522.13;5047222;28;20032;-70
2020/12/13 02:26:44;;;;;;;62.53;20.75;;;;;;;9.76;61.64;100529.78;5065425;28;20481;-70
2020/12/13 02:29:10;;;;;;;56.20;20.88;;;;;;;9.90;61.24;100526.16;5048468;28;20039;-70
2020/12/13 02:31:36;;;;;;;54.05;20.40;;;;;;;9.80;61.68;100530.59;5065889;28;20048;-70
2020/12/13 02:34:02;;;;;;;57.75;21.15;;;;;;;10.00;60.70;100538.06;5064788;28;20028;-69
2020/12/13 02:36:29;;;;;;;57.42;21.13;;;;;;;10.06;61.04;100547.44;5065863;28;20036;-70
2020/12/13 02:38:54;;;;;;;58.30;22.05;;;;;;;10.17;60.48;100543.84;5043993;28;20551;-70
2020/12/13 02:41:20;;;;;;;59.80;21.95;;;;;;;10.15;60.41;100548.16;5064864;28;20068;-70
2020/12/13 02:43:45;;;;;;;55.67;19.75;;;;;;;10.14;60.14;100551.63;5073248;28;20512;-70
2020/12/13 02:46:11;;;;;;;58.70;21.50;;;;;;;9.98;60.85;100550.16;5065511;28;20052;-71
2020/12/13 02:48:36;;;;;;;56.33;20.95;;;;;;;10.18;60.25;100555.88;5061899;28;20460;-69
2020/12/13 02:51:02;;;;;;;56.50;21.75;;;;;;;10.14;60.60;100555.97;5065591;28;20470;-71
2020/12/13 02:53:28;;;;;;;67.20;23.17;;;;;;;10.02;60.71;100562.13;5066202;28;20526;-68
2020/12/13 02:55:53;;;;;;;59.30;21.90;;;;;;;10.08;60.64;100554.31;5066424;28;20055;-70
2020/12/13 02:58:19;;;;;;;59.97;21.90;;;;;;;10.17;60.32;100551.59;5065475;28;20678;-69
2020/12/13 03:00:44;;;;;;;59.75;20.83;;;;;;;10.13;60.41;100556.81;5072836;28;20037;-68
2020/12/13 03:03:10;;;;;;;63.67;22.02;;;;;;;10.21;60.22;100552.41;5074035;28;20114;-69
2020/12/13 03:05:36;;;;;;;64.05;20.98;;;;;;;10.13;60.77;100559.41;5089063;28;20089;-70
2020/12/13 03:08:01;;;;;;;65.47;21.85;;;;;;;10.18;60.54;100562.78;5072059;28;20032;-70
2020/12/13 03:10:27;;;;;;;58.47;20.48;;;;;;;10.19;60.71;100560.16;5073410;28;20157;-70
2020/12/13 03:12:52;;;;;;;64.00;22.27;;;;;;;10.14;60.70;100566.28;5072344;28;20032;-69
2020/12/13 03:15:18;;;;;;;60.58;21.65;;;;;;;10.09;61.17;100563.78;5071839;28;20123;-69
2020/12/13 03:18:01;;;;;;;58.97;20.98;;;;;;;9.88;61.75;100564.88;5073610;28;20138;-70
2020/12/13 03:20:26;;;;;;;54.85;21.98;;;;;;;10.14;61.01;100567.13;5071896;28;20135;-71
2020/12/13 03:22:52;;;;;;;63.70;21.13;;;;;;;10.27;60.39;100561.78;5072642;28;20107;-70
2020/12/13 03:25:17;;;;;;;48.13;18.90;;;;;;;10.10;60.91;100570.63;5071355;28;20028;-68
2020/12/13 03:27:43;;;;;;;64.22;19.80;;;;;;;9.93;61.28;100559.66;5072697;28;20080;-68
2020/12/13 03:30:09;;;;;;;66.13;22.08;;;;;;;10.21;60.61;100572.22;5071045;28;20161;-70
2020/12/13 03:32:36;;;;;;;55.42;20.70;;;;;;;10.21;60.57;100567.06;5071369;28;20757;-68
2020/12/13 03:35:04;;;;;;;63.33;20.83;;;;;;;10.21;60.88;100567.91;5072007;28;20082;-68
2020/12/13 03:37:30;;;;;;;63.53;21.13;;;;;;;10.31;60.48;100573.81;5072412;28;20044;-69
2020/12/13 03:39:56;;;;;;;59.42;22.15;;;;;;;10.11;61.28;100580.09;5071279;28;20028;-69
2020/12/13 03:42:21;;;;;;;60.58;22.67;;;;;;;10.25;60.52;100579.03;5081094;28;20111;-69
2020/12/13 03:44:47;;;;;;;65.68;23.55;;;;;;;10.17;60.51;100582.56;5073595;28;20489;-69
2020/12/13 03:47:12;;;;;;;70.03;20.92;;;;;;;10.23;60.61;100580.81;5073281;28;20032;-70
2020/12/13 03:49:38;;;;;;;68.38;23.92;;;;;;;10.22;60.72;100579.94;5073967;28;20142;-69
2020/12/13 03:52:03;;;;;;;67.55;22.73;;;;;;;10.25;60.68;100591.94;5072120;28;20028;-70
2020/12/13 03:54:30;;;;;;;63.65;21.98;;;;;;;10.12;61.19;100583.53;5072549;28;20360;-72
2020/12/13 03:56:56;;;;;;;65.50;20.98;;;;;;;10.29;60.58;100579.03;5071297;28;20514;-69
2020/12/13 03:59:21;;;;;;;71.55;20.70;;;;;;;10.21;61.11;100582.56;5074323;28;20116;-70
2020/12/13 04:01:47;;;;;;;74.68;21.80;;;;;;;10.37;60.43;100594.41;5072622;28;20773;-71
2020/12/13 04:04:12;;;;;;;79.90;21.63;;;;;;;10.28;60.58;100599.66;5074034;28;20032;-71
2020/12/13 04:06:38;;;;;;;63.22;20.70;;;;;;;10.35;60.86;100594.41;5072105;28;20037;-68
2020/12/13 04:09:03;;;;;;;58.42;21.10;;;;;;;10.42;60.33;100605.50;5088848;28;20512;-71
2020/12/13 04:11:28;;;;;;;57.85;22.08;;;;;;;10.47;60.26;100601.16;5069122;28;20475;-69
2020/12/13 04:13:54;;;;;;;61.80;21.08;;;;;;;10.43;60.51;100608.97;5069000;28;20133;-71
2020/12/13 04:16:19;;;;;;;57.03;21.27;;;;;;;10.38;60.95;100607.31;5052100;28;20035;-71
2020/12/13 04:18:45;;;;;;;58.80;18.80;;;;;;;10.52;60.20;100614.00;5052509;28;20109;-68
2020/12/13 04:21:10;;;;;;;70.05;20.83;;;;;;;10.46;60.56;100612.34;5050528;28;20056;-70
2020/12/13 04:23:36;;;;;;;62.72;19.92;;;;;;;10.53;60.09;100618.28;5062348;28;20457;-70
2020/12/13 04:26:01;;;;;;;65.93;20.83;;;;;;;10.51;60.25;100622.59;5068701;28;20036;-69
2020/12/13 04:28:27;;;;;;;66.50;18.83;;;;;;;10.58;60.19;100613.88;5068477;28;20706;-69
2020/12/13 04:30:52;;;;;;;54.20;19.05;;;;;;;10.61;60.18;100610.44;5070118;28;20024;-69
2020/12/13 04:33:18;;;;;;;53.53;19.08;;;;;;;10.56;60.28;100619.09;5068794;28;20115;-70
2020/12/13 04:35:43;;;;;;;54.08;18.15;;;;;;;10.59;59.94;100621.63;5052089;28;20048;-70
2020/12/13 04:38:08;;;;;;;50.60;18.63;;;;;;;10.56;60.59;100619.09;5066976;28;20627;-68
2020/12/13 04:40:34;;;;;;;51.20;18.33;;;;;;;10.55;60.52;100625.13;5073441;28;20055;-69
2020/12/13 04:43:01;;;;;;;51.55;19.02;;;;;;;10.57;60.22;100622.53;5069616;28;20052;-69
2020/12/13 04:45:27;;;;;;;49.13;17.13;;;;;;;10.61;60.22;100639.69;5064057;28;20032;-69
2020/12/13 04:48:09;;;;;;;42.00;15.70;;;;;;;10.55;60.37;100630.28;5068323;28;20033;-70
2020/12/13 04:50:39;;;;;;;35.35;13.63;;;;;;;10.65;60.30;100630.16;5063106;28;20082;-69
2020/12/13 04:53:07;;;;;;;55.83;18.38;;;;;;;10.71;60.07;100636.09;5069914;28;20036;-70
2020/12/13 04:55:43;;;;;;;37.85;16.08;;;;;;;10.67;60.43;100638.75;5067782;28;20036;-70
2020/12/13 04:58:13;;;;;;;43.78;16.85;;;;;;;10.76;60.16;100642.06;5084595;28;20379;-68
2020/12/13 05:00:42;;;;;;;49.10;17.80;;;;;;;10.76;59.93;100648.94;5068014;28;20040;-69
2020/12/13 05:03:12;;;;;;;44.08;16.23;;;;;;;10.78;59.97;100654.94;5069219;28;20029;-70
2020/12/13 05:05:38;;;;;;;50.15;18.85;;;;;;;10.72;60.02;100657.63;5046216;28;20039;-70
2020/12/13 05:08:03;;;;;;;54.75;17.35;;;;;;;10.76;59.72;100659.28;5069157;28;20072;-69
2020/12/13 05:10:30;;;;;;;50.50;18.98;;;;;;;10.81;60.07;100662.66;5069011;28;20036;-71
2020/12/13 05:12:55;;;;;;;52.15;18.23;;;;;;;10.83;60.14;100676.44;5066630;28;20124;-69
2020/12/13 05:15:21;;;;;;;45.15;16.70;;;;;;;10.82;60.31;100668.69;5084888;28;20119;-69
2020/12/13 05:17:46;;;;;;;64.05;18.48;;;;;;;10.82;59.95;100677.28;5067399;28;20040;-69
2020/12/13 05:20:12;;;;;;;43.72;17.75;;;;;;;10.74;60.49;100664.50;5069595;28;20044;-71
2020/12/13 05:22:38;;;;;;;46.13;18.90;;;;;;;10.78;60.03;100667.88;5067150;28;20044;-70
2020/12/13 05:25:11;;;;;;;43.53;17.48;;;;;;;10.76;60.17;100667.03;5066818;28;20028;-70
2020/12/13 05:27:40;;;;;;;53.13;18.63;;;;;;;10.84;60.10;100667.78;5053407;28;20059;-70
2020/12/13 05:30:06;;;;;;;47.88;17.70;;;;;;;10.89;59.93;100672.88;5068220;28;20040;-71
2020/12/13 05:32:31;;;;;;;45.15;17.27;;;;;;;10.90;59.83;100670.28;5068806;28;20086;-70
2020/12/13 05:34:57;;;;;;;43.45;17.60;;;;;;;10.86;60.07;100676.38;5067973;28;20719;-70
2020/12/13 05:37:22;;;;;;;40.53;15.65;;;;;;;10.94;59.84;100674.53;5051745;28;20101;-71
2020/12/13 05:39:50;;;;;;;45.05;16.05;;;;;;;10.87;60.18;100675.47;5075501;28;20043;-71
2020/12/13 05:42:37;;;;;;;43.97;17.92;;;;;;;10.91;60.19;100669.38;5069391;28;20033;-69
2020/12/13 05:45:29;;;;;;;55.00;16.58;;;;;;;10.50;61.12;100668.28;5082309;28;20036;-72
2020/12/13 05:50:51;;;;;;;41.63;15.65;;;;;;;10.65;60.87;100671.50;5083458;28;20051;-70
2020/12/13 05:53:17;;;;;;;39.65;15.48;;;;;;;10.39;62.12;100678.75;5067978;28;20037;-70
2020/12/13 05:55:43;;;;;;;43.58;15.70;;;;;;;10.76;60.79;100679.97;5067423;28;20040;-70
2020/12/13 05:58:09;;;;;;;39.42;16.30;;;;;;;10.75;60.67;100681.69;5056183;28;20461;-70
2020/12/13 06:00:35;;;;;;;35.72;14.68;;;;;;;10.73;60.37;100682.59;5067343;28;20056;-70
2020/12/13 06:03:04;;;;;;;45.65;15.13;;;;;;;10.59;61.14;100682.81;5068885;28;20034;-69
2020/12/13 06:05:33;;;;;;;34.45;13.70;;;;;;;10.11;62.33;100691.16;5067408;28;20147;-69
2020/12/13 06:08:02;;;;;;;24.13;10.90;;;;;;;9.96;62.06;100691.31;5067295;28;20036;-70
2020/12/13 06:10:33;;;;;;;25.83;10.25;;;;;;;9.98;61.59;100687.84;5064992;28;20097;-69
2020/12/13 06:13:04;;;;;;;27.20;8.70;;;;;;;10.34;60.62;100692.63;5066999;28;20041;-70
2020/12/13 06:15:31;;;;;;;20.13;8.82;;;;;;;10.11;60.50;100705.75;5067959;28;20442;-70
2020/12/13 06:18:03;;;;;;;19.00;9.23;;;;;;;10.30;59.67;100709.03;5045046;28;20033;-70
2020/12/13 06:20:29;;;;;;;24.40;10.10;;;;;;;10.23;59.94;100720.28;5067333;28;20039;-70
2020/12/13 06:22:55;;;;;;;23.25;9.88;;;;;;;9.50;61.59;100717.59;5049155;28;20045;-70
2020/12/13 06:25:22;;;;;;;21.88;9.68;;;;;;;9.96;60.42;100722.31;5050733;28;20036;-70
2020/12/13 06:27:50;;;;;;;24.95;10.80;;;;;;;10.21;59.66;100711.69;5082453;28;20071;-70
2020/12/13 06:30:17;;;;;;;22.50;10.35;;;;;;;10.31;59.37;100715.88;5066424;28;20501;-70
2020/12/13 06:32:45;;;;;;;27.58;11.02;;;;;;;10.38;58.97;100720.09;5050524;28;20667;-70
2020/12/13 06:35:12;;;;;;;23.05;8.60;;;;;;;10.41;58.68;100725.25;5062717;28;20043;-69
2020/12/13 06:37:38;;;;;;;27.85;11.30;;;;;;;10.44;58.66;100727.78;5084755;28;20040;-70
2020/12/13 06:40:17;;;;;;;25.80;9.93;;;;;;;10.41;58.93;100737.31;5068532;28;20040;-70
2020/12/13 06:42:44;;;;;;;22.02;9.65;;;;;;;10.48;58.67;100738.94;5063319;28;20032;-70
2020/12/13 06:45:12;;;;;;;24.15;10.65;;;;;;;10.42;58.63;100739.00;5066050;28;20031;-70
2020/12/13 06:47:43;;;;;;;26.58;11.20;;;;;;;10.24;59.11;100740.06;5082139;28;20052;-70
2020/12/13 06:50:24;;;;;;;29.85;11.52;;;;;;;10.19;59.12;100747.84;5066900;28;20049;-70
2020/12/13 06:52:51;;;;;;;26.00;10.50;;;;;;;10.09;59.75;100757.44;5065445;28;20040;-69
2020/12/13 06:55:18;;;;;;;26.85;10.23;;;;;;;10.16;59.82;100765.97;5068121;28;20294;-69
2020/12/13 06:57:49;;;;;;;29.50;12.10;;;;;;;10.34;59.34;100759.78;5085027;28;20037;-70
2020/12/13 07:00:14;;;;;;;24.58;11.57;;;;;;;9.93;60.53;100766.19;5067640;28;20048;-69
2020/12/13 07:02:53;;;;;;;26.02;11.48;;;;;;;10.18;59.42;100772.00;5084915;28;20040;-70
2020/12/13 07:05:19;;;;;;;30.58;12.43;;;;;;;10.36;59.04;100763.22;5066199;28;20029;-70
2020/12/13 07:07:48;;;;;;;26.52;12.38;;;;;;;10.04;59.87;100776.44;5068344;28;20479;-70
2020/12/13 07:10:14;;;;;;;26.50;11.85;;;;;;;10.34;59.02;100767.53;5067049;28;20440;-70
2020/12/13 07:12:48;;;;;;;27.05;10.23;;;;;;;10.12;59.08;100778.06;5068941;28;20036;-69
2020/12/13 07:15:49;;;;;;;19.58;8.25;;;;;;;10.42;58.24;100772.59;5050900;28;20060;-70
2020/12/13 07:18:10;;;;;;;20.75;8.95;;;;;;;10.37;58.29;100775.25;5061584;28;20045;-70
2020/12/13 07:20:36;;;;;;;21.02;8.95;;;;;;;10.27;58.46;100783.91;5067795;28;20047;-70
2020/12/13 07:23:03;;;;;;;20.50;8.73;;;;;;;10.21;58.72;100778.84;5069090;28;20047;-69
2020/12/13 07:25:29;;;;;;;17.55;7.95;;;;;;;10.13;59.04;100782.34;5084700;28;20115;-69
2020/12/13 07:27:54;;;;;;;21.13;8.57;;;;;;;10.08;59.11;100784.13;5065150;28;20143;-70
2020/12/13 07:30:20;;;;;;;19.42;8.07;;;;;;;10.23;58.92;100790.03;5069646;28;20040;-70
2020/12/13 07:32:45;;;;;;;20.52;8.73;;;;;;;10.25;58.67;100790.84;5069282;28;20036;-69
2020/12/13 07:35:12;;;;;;;16.00;7.07;;;;;;;10.19;58.90;100800.38;5069750;28;20063;-69
2020/12/13 07:37:40;;;;;;;18.38;7.78;;;;;;;10.17;58.91;100799.53;5087003;28;20044;-70
2020/12/13 07:40:13;;;;;;;17.23;8.18;;;;;;;10.22;58.87;100806.38;5067639;28;20036;-70
2020/12/13 07:42:39;;;;;;;25.58;8.90;;;;;;;10.14;58.83;100804.72;5065339;28;20075;-70
2020/12/13 07:45:05;;;;;;;19.55;7.95;;;;;;;10.24;58.76;100809.81;5067127;28;20111;-70
2020/12/13 07:47:30;;;;;;;26.67;8.25;;;;;;;9.87;59.70;100805.00;5066034;28;20664;-70
2020/12/13 07:50:05;;;;;;;21.67;8.27;;;;;;;10.15;58.85;100808.16;5070209;28;20108;-70
2020/12/13 07:52:31;;;;;;;22.60;8.45;;;;;;;10.12;59.13;100805.63;5070978;28;20032;-70
2020/12/13 07:55:06;;;;;;;20.38;7.80;;;;;;;10.17;58.79;100809.00;5066649;28;20436;-70
2020/12/13 07:57:32;;;;;;;19.73;7.65;;;;;;;10.17;59.00;100812.44;5069630;28;20064;-69
2020/12/13 08:00:08;;;;;;;22.42;8.10;;;;;;;10.17;58.93;100812.44;5069154;28;20020;-68
2020/12/13 08:02:37;;;;;;;19.65;7.50;;;;;;;10.10;59.38;100815.97;5071626;28;20064;-69
2020/12/13 08:05:02;;;;;;;16.10;6.95;;;;;;;10.29;58.85;100813.22;5067356;28;20055;-70
2020/12/13 08:07:29;;;;;;;18.77;7.72;;;;;;;10.29;59.16;100813.22;5069538;28;20628;-72
2020/12/13 08:09:57;;;;;;;19.25;7.20;;;;;;;10.32;58.89;100811.47;5070586;28;20044;-71
2020/12/13 08:12:30;;;;;;;21.58;8.82;;;;;;;10.29;59.05;100819.25;5085729;28;20482;-68
2020/12/13 08:14:55;;;;;;;17.83;7.65;;;;;;;10.12;59.92;100819.38;5067221;28;20040;-72
2020/12/13 08:17:21;;;;;;;21.65;8.40;;;;;;;10.50;58.64;100827.63;5070106;28;21019;-68
2020/12/13 08:19:49;;;;;;;20.38;8.60;;;;;;;10.57;58.47;100824.09;5066921;28;20413;-69
2020/12/13 08:22:26;;;;;;;31.45;10.55;;;;;;;9.91;60.69;100824.75;5070232;28;20127;-69
2020/12/13 08:25:05;;;;;;;22.63;9.57;;;;;;;10.34;59.00;100832.97;5069036;28;20033;-70
2020/12/13 08:27:36;;;;;;;21.58;7.80;;;;;;;10.18;59.51;100831.41;5065872;28;20068;-69
2020/12/13 08:30:04;;;;;;;18.40;7.47;;;;;;;10.25;59.95;100837.31;5064997;28;20060;-69
2020/12/13 08:32:35;;;;;;;18.80;7.70;;;;;;;10.28;59.92;100842.47;5065591;28;20060;-70
2020/12/13 08:35:14;;;;;;;19.58;7.72;;;;;;;9.91;61.23;100845.41;5068990;28;20028;-69
2020/12/13 08:37:40;;;;;;;27.30;8.25;;;;;;;10.09;60.75;100853.00;5070703;28;20068;-69
2020/12/13 08:40:10;;;;;;;19.33;7.38;;;;;;;10.33;60.34;100845.91;5065053;28;20509;-70
2020/12/13 08:42:36;;;;;;;20.58;7.68;;;;;;;10.27;60.41;100845.91;5083789;28;20040;-69
2020/12/13 08:45:03;;;;;;;18.67;6.75;;;;;;;10.41;59.91;100854.44;5069362;28;20044;-69
2020/12/13 08:47:32;;;;;;;18.95;6.82;;;;;;;9.96;61.61;100853.97;5067132;28;20056;-71
2020/12/13 08:49:59;;;;;;;26.42;7.82;;;;;;;9.94;61.21;100858.28;5067204;28;20127;-69
2020/12/13 08:52:26;;;;;;;26.77;8.23;;;;;;;9.47;62.67;100870.69;5067999;28;20028;-69
2020/12/13 08:54:54;;;;;;;22.63;8.15;;;;;;;9.98;61.49;100871.16;5084507;28;20095;-68
2020/12/13 08:57:31;;;;;;;26.90;8.35;;;;;;;10.14;60.53;100876.19;5067504;28;20148;-71
2020/12/13 09:00:04;;;;;;;21.05;7.20;;;;;;;9.68;62.17;100877.41;5081615;28;20032;-69
2020/12/13 09:02:29;;;;;;;26.83;8.07;;;;;;;9.84;61.65;100883.31;5049690;28;20028;-70
2020/12/13 09:04:57;;;;;;;19.00;8.23;;;;;;;10.01;61.75;100890.94;5067673;28;20437;-69
2020/12/13 09:07:22;;;;;;;24.65;9.13;;;;;;;10.17;61.12;100884.75;5068229;28;20517;-70
2020/12/13 09:09:48;;;;;;;17.75;7.93;;;;;;;10.24;60.97;100887.28;5066334;28;20047;-70
2020/12/13 09:12:28;;;;;;;21.65;7.65;;;;;;;10.62;60.00;100878.34;5061780;28;20041;-70
2020/12/13 09:14:53;;;;;;;26.42;10.07;;;;;;;10.06;61.15;100881.41;5065665;28;20458;-69
2020/12/13 09:17:23;;;;;;;34.75;10.05;;;;;;;10.14;61.19;100887.38;5065122;28;20100;-68
2020/12/13 09:19:50;;;;;;;23.42;8.90;;;;;;;9.98;61.49;100896.13;5066577;28;20028;-70
2020/12/13 09:22:21;;;;;;;25.25;7.68;;;;;;;10.27;60.59;100897.59;5067589;28;20042;-69
2020/12/13 09:24:46;;;;;;;20.33;8.20;;;;;;;10.06;60.88;100898.63;5064617;28;20129;-68
2020/12/13 09:27:18;;;;;;;22.33;8.88;;;;;;;10.12;60.97;100902.03;5046273;28;20572;-69
2020/12/13 09:29:46;;;;;;;33.38;8.70;;;;;;;10.04;60.88;100896.06;5065857;28;20063;-69
2020/12/13 09:32:12;;;;;;;35.75;10.88;;;;;;;10.00;61.60;100907.28;5067175;28;20111;-69
2020/12/13 09:34:38;;;;;;;34.97;10.68;;;;;;;9.42;62.88;100899.94;5067611;28;20349;-70
2020/12/13 09:37:07;;;;;;;26.42;9.55;;;;;;;9.72;62.06;100907.50;5069164;28;20039;-70
2020/12/13 09:39:32;;;;;;;30.05;11.55;;;;;;;9.85;62.02;100910.00;5068310;28;20040;-69
2020/12/13 09:41:58;;;;;;;30.70;8.68;;;;;;;10.16;61.42;100908.88;5066419;28;23681;-69
2020/12/13 09:44:25;;;;;;;36.50;11.88;;;;;;;10.10;60.96;100910.66;5065338;28;20044;-68
2020/12/13 09:46:55;;;;;;;34.47;10.02;;;;;;;10.13;61.15;100919.22;5080310;28;20860;-70
2020/12/13 09:49:21;;;;;;;29.92;9.57;;;;;;;10.33;60.35;100928.56;5064904;28;20066;-71
2020/12/13 09:51:47;;;;;;;30.52;9.27;;;;;;;10.28;60.64;100931.16;5066946;28;20050;-68
2020/12/13 09:54:13;;;;;;;27.83;9.13;;;;;;;10.16;60.78;100942.47;5063154;28;20040;-69
2020/12/13 09:56:39;;;;;;;35.55;10.20;;;;;;;10.22;60.63;100941.53;5066724;28;20478;-71
2020/12/13 09:59:04;;;;;;;29.85;9.52;;;;;;;10.53;59.83;100929.22;5065362;28;20748;-71
2020/12/13 10:01:30;;;;;;;22.17;8.98;;;;;;;10.14;60.89;100933.03;5065505;28;20119;-70
2020/12/13 10:03:56;;;;;;;31.45;9.60;;;;;;;10.37;60.05;100931.09;5065248;28;20032;-69
2020/12/13 10:11:31;;;;;;;22.50;8.57;;;;;;;10.30;59.77;100936.34;5065727;28;20608;-69
2020/12/13 10:13:58;;;;;;;27.90;10.05;;;;;;;10.76;59.54;100928.13;5064386;28;20036;-70
2020/12/13 10:16:24;;;;;;;26.60;10.13;;;;;;;11.01;58.76;100929.59;5064874;28;20051;-69
2020/12/13 10:18:50;;;;;;;25.15;9.13;;;;;;;11.14;57.97;100930.31;5041491;28;20044;-69
2020/12/13 10:21:20;;;;;;;28.75;9.30;;;;;;;10.81;58.84;100931.56;5065215;28;20638;-69
2020/12/13 10:23:45;;;;;;;25.85;8.98;;;;;;;11.28;58.55;100922.38;5065878;28;20064;-69
2020/12/13 10:26:11;;;;;;;28.08;9.07;;;;;;;11.18;57.97;100923.34;5063314;28;20063;-69
2020/12/13 10:28:36;;;;;;;29.00;10.52;;;;;;;10.90;58.36;100930.59;5067920;28;20429;-69
2020/12/13 10:31:02;;;;;;;30.95;9.95;;;;;;;10.72;58.93;100934.25;5067941;28;20081;-69
2020/12/13 10:33:27;;;;;;;24.75;9.45;;;;;;;10.88;58.19;100935.78;5066268;28;20110;-68
2020/12/13 10:35:53;;;;;;;27.15;9.98;;;;;;;11.06;58.27;100936.44;5064108;28;20402;-69
2020/12/13 10:38:18;;;;;;;34.95;9.95;;;;;;;10.98;58.12;100939.09;5066448;28;20535;-69
2020/12/13 10:40:44;;;;;;;26.00;9.98;;;;;;;11.04;58.20;100938.19;5081945;28;20028;-70
2020/12/13 10:43:09;;;;;;;26.90;10.25;;;;;;;11.01;58.31;100934.75;5064285;28;20409;-71
2020/12/13 10:45:35;;;;;;;22.77;8.95;;;;;;;11.13;58.00;100932.91;5079912;28;20120;-69
2020/12/13 10:48:03;;;;;;;28.38;9.88;;;;;;;11.22;57.61;100933.63;5066281;28;20091;-70
2020/12/13 10:50:29;;;;;;;25.20;8.77;;;;;;;11.29;57.37;100939.59;5065443;28;20106;-69
2020/12/13 10:52:54;;;;;;;23.10;10.20;;;;;;;11.34;57.53;100937.81;5064456;28;20032;-68
2020/12/13 10:55:21;;;;;;;29.38;10.35;;;;;;;10.64;58.99;100948.97;5064845;28;20481;-71
2020/12/13 10:57:47;;;;;;;24.70;9.10;;;;;;;10.89;58.19;100949.56;5061252;28;20413;-70
2020/12/13 11:00:12;;;;;;;33.10;10.38;;;;;;;10.18;60.21;100939.88;5079583;28;20059;-70
2020/12/13 11:02:38;;;;;;;24.25;8.32;;;;;;;10.69;58.85;100950.63;5063814;28;20537;-69
2020/12/13 11:05:04;;;;;;;25.90;9.63;;;;;;;10.39;60.30;100946.59;5065182;28;20048;-71
2020/12/13 11:07:29;;;;;;;43.10;9.48;;;;;;;9.82;61.28;100946.16;5063601;28;20580;-69
2020/12/13 11:09:55;;;;;;;30.58;9.75;;;;;;;10.67;59.47;100943.75;5062001;28;20445;-71
2020/12/13 11:12:20;;;;;;;33.03;10.30;;;;;;;11.04;59.23;100943.38;5065971;28;20048;-70
2020/12/13 11:14:47;;;;;;;31.45;9.75;;;;;;;11.25;58.43;100943.09;5063715;28;20511;-70
2020/12/13 11:17:12;;;;;;;30.77;10.25;;;;;;;10.83;59.38;100947.91;5079813;28;20048;-69
2020/12/13 11:19:38;;;;;;;29.15;9.60;;;;;;;11.00;58.90;100942.53;5064752;28;20040;-71
2020/12/13 11:22:03;;;;;;;24.48;9.20;;;;;;;11.12;58.83;100941.53;5066153;28;20036;-70
2020/12/13 11:24:29;;;;;;;31.00;10.32;;;;;;;11.27;58.40;100949.09;5067116;28;20874;-72
2020/12/13 11:26:54;;;;;;;27.48;9.77;;;;;;;11.24;58.38;100941.38;5066993;28;20035;-70